createdAt,value
2018-05-14T00:00:14.461Z,16.75
2018-05-14T00:01:14.340Z,16.78
2018-05-14T00:02:14.249Z,16.80
2018-05-14T00:03:14.158Z,16.72
2018-05-14T00:04:14.068Z,16.75
2018-05-14T00:05:14.008Z,16.75
2018-05-14T00:06:13.891Z,16.65
2018-05-14T00:07:13.799Z,16.75
2018-05-14T00:08:13.712Z,16.72
2018-05-14T00:09:14.160Z,16.77
2018-05-14T00:10:13.561Z,16.82
2018-05-14T00:11:13.444Z,16.78
2018-05-14T00:12:13.353Z,16.82
2018-05-14T00:13:13.266Z,16.77
2018-05-14T00:14:13.174Z,16.81
2018-05-14T00:15:13.118Z,16.87
2018-05-14T00:16:12.997Z,16.80
2018-05-14T00:17:12.908Z,16.75
2018-05-14T00:18:12.818Z,16.78
2018-05-14T00:19:12.730Z,16.82
2018-05-14T00:20:12.674Z,16.85
2018-05-14T00:21:12.550Z,16.78
2018-05-14T00:22:12.459Z,16.70
2018-05-14T00:23:13.110Z,16.80
2018-05-14T00:24:12.285Z,16.77
2018-05-14T00:25:12.221Z,16.77
2018-05-14T00:26:12.101Z,16.66
2018-05-14T00:27:12.016Z,16.72
2018-05-14T00:28:11.923Z,16.63
2018-05-14T00:29:11.837Z,16.78
2018-05-14T00:30:11.777Z,16.77
2018-05-14T00:31:11.653Z,16.72
2018-05-14T00:32:11.565Z,16.63
2018-05-14T00:33:11.784Z,16.72
2018-05-14T00:34:12.113Z,16.65
2018-05-14T00:35:11.328Z,16.66
2018-05-14T00:36:12.171Z,16.65
2018-05-14T00:37:11.120Z,16.57
2018-05-14T00:38:11.030Z,16.67
2018-05-14T00:39:10.940Z,16.67
2018-05-14T00:40:10.881Z,16.67
2018-05-14T00:41:10.762Z,16.66
2018-05-14T00:42:10.671Z,16.69
2018-05-14T00:43:10.582Z,16.73
2018-05-14T00:44:10.496Z,16.78
2018-05-14T00:45:10.407Z,16.80
2018-05-14T00:46:10.345Z,16.82
2018-05-14T00:47:10.226Z,16.81
2018-05-14T00:48:10.134Z,16.81
2018-05-14T00:49:10.045Z,16.77
2018-05-14T00:50:09.955Z,16.73
2018-05-14T00:51:09.899Z,16.73
2018-05-14T00:52:09.796Z,16.69
2018-05-14T00:53:09.686Z,16.75
2018-05-14T00:54:09.898Z,16.80
2018-05-14T00:55:09.515Z,16.70
2018-05-14T00:56:09.449Z,16.65
2018-05-14T00:57:10.166Z,16.65
2018-05-14T00:58:09.237Z,16.67
2018-05-14T00:59:09.148Z,16.59
2018-05-14T01:00:09.060Z,16.66
2018-05-14T01:01:09.004Z,16.60
2018-05-14T01:02:08.881Z,16.65
2018-05-14T01:03:08.791Z,16.75
2018-05-14T01:04:08.702Z,16.75
2018-05-14T01:05:08.614Z,16.66
2018-05-14T01:06:08.553Z,16.69
2018-05-14T01:07:08.434Z,16.59
2018-05-14T01:08:08.343Z,16.63
2018-05-14T01:09:08.254Z,16.59
2018-05-14T01:10:08.165Z,16.55
2018-05-14T01:11:08.623Z,16.51
2018-05-14T01:12:07.994Z,16.51
2018-05-14T01:13:07.896Z,16.51
2018-05-14T01:14:07.823Z,16.48
2018-05-14T01:15:07.717Z,16.48
2018-05-14T01:16:07.658Z,16.51
2018-05-14T01:17:07.541Z,16.44
2018-05-14T01:18:07.449Z,16.47
2018-05-14T01:19:07.360Z,16.29
2018-05-14T01:20:07.269Z,16.32
2018-05-14T01:21:07.182Z,16.33
2018-05-14T01:22:07.122Z,16.32
2018-05-14T01:23:07.000Z,16.29
2018-05-14T01:24:06.916Z,16.26
2018-05-14T01:25:06.819Z,16.29
2018-05-14T01:26:06.740Z,16.25
2018-05-14T01:27:06.670Z,16.18
2018-05-14T01:28:06.619Z,16.25
2018-05-14T01:29:06.751Z,16.25
2018-05-14T01:30:06.372Z,16.16
2018-05-14T01:31:06.288Z,16.11
2018-05-14T01:32:06.223Z,16.13
2018-05-14T01:33:06.106Z,16.06
2018-05-14T01:34:06.017Z,16.07
2018-05-14T01:35:05.925Z,16.08
2018-05-14T01:36:05.932Z,16.06
2018-05-14T01:37:05.774Z,16.06
2018-05-14T01:38:05.656Z,15.96
2018-05-14T01:39:05.565Z,15.99
2018-05-14T01:40:05.480Z,16.03
2018-05-14T01:41:05.385Z,16.06
2018-05-14T01:42:06.187Z,16.03
2018-05-14T01:43:05.500Z,16.08
2018-05-14T01:44:05.118Z,16.06
2018-05-14T01:45:05.027Z,16.10
2018-05-14T01:46:04.935Z,16.06
2018-05-14T01:47:04.878Z,16.03
2018-05-14T01:48:04.759Z,16.06
2018-05-14T01:49:04.667Z,16.11
2018-05-14T01:50:04.670Z,16.10
2018-05-14T01:51:04.489Z,16.13
2018-05-14T01:52:04.430Z,16.07
2018-05-14T01:53:04.319Z,16.08
2018-05-14T01:54:04.219Z,15.93
2018-05-14T01:55:04.129Z,16.01
2018-05-14T01:56:04.054Z,16.01
2018-05-14T01:57:04.078Z,15.93
2018-05-14T01:58:03.856Z,15.96
2018-05-14T01:59:03.769Z,15.95
2018-05-14T02:00:03.684Z,15.98
2018-05-14T02:01:03.591Z,15.88
2018-05-14T02:02:03.528Z,15.89
2018-05-14T02:03:03.508Z,15.85
2018-05-14T02:04:03.319Z,15.80
2018-05-14T02:05:04.136Z,15.81
2018-05-14T02:06:03.139Z,15.81
2018-05-14T02:07:03.080Z,15.74
2018-05-14T02:08:02.959Z,15.81
2018-05-14T02:09:02.871Z,15.89
2018-05-14T02:10:02.783Z,15.89
2018-05-14T02:11:03.673Z,15.93
2018-05-14T02:12:02.601Z,15.89
2018-05-14T02:13:02.551Z,15.84
2018-05-14T02:14:02.420Z,15.81
2018-05-14T02:15:03.192Z,15.78
2018-05-14T02:16:02.242Z,15.77
2018-05-14T02:17:02.157Z,15.70
2018-05-14T02:18:02.093Z,15.74
2018-05-14T02:19:01.971Z,15.84
2018-05-14T02:20:01.882Z,15.80
2018-05-14T02:21:01.791Z,15.81
2018-05-14T02:22:01.701Z,15.74
2018-05-14T02:23:01.642Z,15.71
2018-05-14T02:24:01.524Z,15.80
2018-05-14T02:25:01.434Z,15.77
2018-05-14T02:26:01.357Z,15.77
2018-05-14T02:27:01.253Z,15.84
2018-05-14T02:28:01.195Z,15.74
2018-05-14T02:29:01.072Z,15.84
2018-05-14T02:30:00.981Z,15.78
2018-05-14T02:31:00.893Z,15.84
2018-05-14T02:32:00.801Z,15.86
2018-05-14T02:33:00.745Z,15.81
2018-05-14T02:34:00.621Z,15.78
2018-05-14T02:35:00.534Z,15.77
2018-05-14T02:36:00.443Z,15.84
2018-05-14T02:37:00.351Z,15.74
2018-05-14T02:38:00.293Z,15.84
2018-05-14T02:39:00.171Z,15.68
2018-05-14T02:40:00.097Z,15.60
2018-05-14T02:40:59.992Z,15.71
2018-05-14T02:41:59.900Z,15.68
2018-05-14T02:42:59.858Z,15.73
2018-05-14T02:43:59.724Z,15.78
2018-05-14T02:44:59.633Z,15.68
2018-05-14T02:45:59.542Z,15.66
2018-05-14T02:46:59.453Z,15.67
2018-05-14T02:47:59.362Z,15.60
2018-05-14T02:48:59.301Z,15.58
2018-05-14T02:49:59.192Z,15.76
2018-05-14T02:50:59.091Z,15.66
2018-05-14T02:51:59.002Z,15.66
2018-05-14T02:52:58.914Z,15.76
2018-05-14T02:53:58.851Z,15.67
2018-05-14T02:54:58.734Z,15.71
2018-05-14T02:55:58.642Z,15.71
2018-05-14T02:56:58.552Z,15.70
2018-05-14T02:57:58.462Z,15.70
2018-05-14T02:58:58.407Z,15.73
2018-05-14T02:59:58.281Z,15.74
2018-05-14T03:00:58.193Z,15.64
2018-05-14T03:01:58.101Z,15.71
2018-05-14T03:02:58.658Z,15.68
2018-05-14T03:03:58.006Z,15.68
2018-05-14T03:04:57.852Z,15.56
2018-05-14T03:05:57.739Z,15.59
2018-05-14T03:06:57.653Z,15.67
2018-05-14T03:07:57.578Z,15.58
2018-05-14T03:08:57.504Z,15.62
2018-05-14T03:09:57.381Z,15.66
2018-05-14T03:10:57.295Z,15.59
2018-05-14T03:11:57.202Z,15.55
2018-05-14T03:12:57.110Z,15.53
2018-05-14T03:13:57.060Z,15.59
2018-05-14T03:14:56.929Z,15.56
2018-05-14T03:15:56.839Z,15.51
2018-05-14T03:16:56.754Z,15.49
2018-05-14T03:17:56.659Z,15.67
2018-05-14T03:18:56.569Z,15.59
2018-05-14T03:19:56.510Z,15.56
2018-05-14T03:20:56.391Z,15.70
2018-05-14T03:21:56.297Z,15.71
2018-05-14T03:22:56.208Z,15.68
2018-05-14T03:23:56.122Z,15.68
2018-05-14T03:24:56.060Z,15.64
2018-05-14T03:25:55.936Z,15.59
2018-05-14T03:26:55.847Z,15.67
2018-05-14T03:27:55.758Z,15.66
2018-05-14T03:28:55.669Z,15.66
2018-05-14T03:29:55.608Z,15.60
2018-05-14T03:30:55.485Z,15.67
2018-05-14T03:31:55.397Z,15.60
2018-05-14T03:32:55.308Z,15.60
2018-05-14T03:33:55.306Z,15.64
2018-05-14T03:34:55.126Z,15.59
2018-05-14T03:35:55.068Z,15.62
2018-05-14T03:36:54.946Z,15.60
2018-05-14T03:37:54.854Z,15.58
2018-05-14T03:38:56.660Z,15.58
2018-05-14T03:39:54.675Z,15.62
2018-05-14T03:40:54.706Z,15.56
2018-05-14T03:41:54.494Z,15.51
2018-05-14T03:42:54.402Z,15.66
2018-05-14T03:43:54.314Z,15.66
2018-05-14T03:44:54.224Z,15.55
2018-05-14T03:45:54.165Z,15.60
2018-05-14T03:46:54.045Z,15.58
2018-05-14T03:47:54.047Z,15.68
2018-05-14T03:48:53.865Z,15.64
2018-05-14T03:49:53.771Z,15.64
2018-05-14T03:50:53.718Z,15.62
2018-05-14T03:51:53.591Z,15.59
2018-05-14T03:52:53.503Z,15.70
2018-05-14T03:53:53.411Z,15.59
2018-05-14T03:54:53.425Z,15.62
2018-05-14T03:55:53.260Z,15.55
2018-05-14T03:56:53.665Z,15.60
2018-05-14T03:57:53.050Z,15.60
2018-05-14T03:58:52.961Z,15.73
2018-05-14T03:59:52.884Z,15.88
2018-05-14T04:00:52.783Z,15.85
2018-05-14T04:01:52.793Z,15.85
2018-05-14T04:02:52.600Z,15.77
2018-05-14T04:03:52.512Z,15.78
2018-05-14T04:04:52.422Z,15.81
2018-05-14T04:05:52.331Z,15.85
2018-05-14T04:06:52.272Z,15.84
2018-05-14T04:07:52.147Z,15.84
2018-05-14T04:08:52.158Z,15.81
2018-05-14T04:09:51.976Z,15.81
2018-05-14T04:10:51.884Z,15.88
2018-05-14T04:11:51.823Z,15.85
2018-05-14T04:12:51.701Z,15.86
2018-05-14T04:13:51.607Z,15.92
2018-05-14T04:14:51.526Z,16.01
2018-05-14T04:15:51.429Z,16.04
2018-05-14T04:16:51.371Z,15.89
2018-05-14T04:17:51.251Z,16.03
2018-05-14T04:18:51.160Z,16.03
2018-05-14T04:19:51.069Z,16.13
2018-05-14T04:20:50.982Z,16.06
2018-05-14T04:21:50.927Z,16.11
2018-05-14T04:22:50.800Z,16.14
2018-05-14T04:23:50.711Z,16.18
2018-05-14T04:24:50.621Z,16.32
2018-05-14T04:25:50.529Z,16.37
2018-05-14T04:26:50.440Z,16.54
2018-05-14T04:27:50.386Z,16.47
2018-05-14T04:28:50.262Z,16.52
2018-05-14T04:29:50.175Z,16.48
2018-05-14T04:30:50.081Z,16.52
2018-05-14T04:31:49.993Z,16.59
2018-05-14T04:32:49.938Z,16.60
2018-05-14T04:33:49.816Z,16.57
2018-05-14T04:34:49.732Z,16.63
2018-05-14T04:35:49.640Z,16.73
2018-05-14T04:36:49.547Z,16.70
2018-05-14T04:37:49.460Z,16.70
2018-05-14T04:38:49.399Z,16.77
2018-05-14T04:39:49.277Z,16.85
2018-05-14T04:40:49.188Z,16.80
2018-05-14T04:41:49.099Z,16.85
2018-05-14T04:42:49.010Z,16.90
2018-05-14T04:43:48.951Z,16.92
2018-05-14T04:44:48.830Z,16.87
2018-05-14T04:45:48.745Z,16.99
2018-05-14T04:46:49.227Z,17.02
2018-05-14T04:47:48.562Z,16.99
2018-05-14T04:48:48.506Z,17.06
2018-05-14T04:49:48.383Z,17.07
2018-05-14T04:50:49.236Z,17.14
2018-05-14T04:51:48.207Z,17.18
2018-05-14T04:52:48.119Z,17.35
2018-05-14T04:53:48.061Z,17.27
2018-05-14T04:54:47.944Z,17.35
2018-05-14T04:55:47.850Z,17.46
2018-05-14T04:56:47.761Z,17.51
2018-05-14T04:57:47.672Z,17.47
2018-05-14T04:58:47.585Z,17.53
2018-05-14T04:59:47.532Z,17.46
2018-05-14T05:00:47.408Z,17.45
2018-05-14T05:01:47.319Z,17.43
2018-05-14T05:02:47.234Z,17.54
2018-05-14T05:03:47.140Z,17.46
2018-05-14T05:04:47.100Z,17.47
2018-05-14T05:05:46.964Z,17.57
2018-05-14T05:06:46.874Z,17.57
2018-05-14T05:07:46.788Z,17.60
2018-05-14T05:08:46.700Z,17.66
2018-05-14T05:09:46.642Z,17.74
2018-05-14T05:10:46.523Z,17.73
2018-05-14T05:11:46.447Z,17.80
2018-05-14T05:12:46.352Z,17.76
2018-05-14T05:13:46.260Z,17.79
2018-05-14T05:14:46.170Z,17.80
2018-05-14T05:15:46.126Z,17.81
2018-05-14T05:16:45.993Z,17.86
2018-05-14T05:17:45.905Z,17.79
2018-05-14T05:18:45.818Z,17.92
2018-05-14T05:19:45.733Z,17.94
2018-05-14T05:20:45.673Z,17.96
2018-05-14T05:21:45.556Z,17.98
2018-05-14T05:22:45.516Z,17.96
2018-05-14T05:23:45.381Z,17.94
2018-05-14T05:24:45.288Z,17.94
2018-05-14T05:25:45.231Z,17.94
2018-05-14T05:26:45.114Z,18.02
2018-05-14T05:27:45.725Z,18.11
2018-05-14T05:28:44.935Z,18.10
2018-05-14T05:29:44.849Z,18.04
2018-05-14T05:30:44.792Z,18.17
2018-05-14T05:31:44.674Z,18.17
2018-05-14T05:32:44.677Z,18.25
2018-05-14T05:33:44.495Z,18.28
2018-05-14T05:34:44.413Z,18.32
2018-05-14T05:35:44.367Z,18.36
2018-05-14T05:36:44.236Z,18.35
2018-05-14T05:37:44.184Z,18.44
2018-05-14T05:38:44.056Z,18.47
2018-05-14T05:39:43.971Z,18.39
2018-05-14T05:40:43.883Z,18.56
2018-05-14T05:41:43.826Z,18.46
2018-05-14T05:42:43.705Z,18.44
2018-05-14T05:43:43.619Z,18.44
2018-05-14T05:44:43.534Z,18.50
2018-05-14T05:45:43.446Z,18.56
2018-05-14T05:46:44.195Z,18.46
2018-05-14T05:47:43.267Z,18.66
2018-05-14T05:48:43.182Z,18.72
2018-05-14T05:49:43.696Z,18.74
2018-05-14T05:50:43.011Z,18.90
2018-05-14T05:51:42.951Z,18.93
2018-05-14T05:52:42.832Z,18.93
2018-05-14T05:53:42.743Z,18.99
2018-05-14T05:54:42.657Z,19.02
2018-05-14T05:55:42.568Z,19.06
2018-05-14T05:56:42.520Z,19.02
2018-05-14T05:57:42.397Z,18.99
2018-05-14T05:58:42.306Z,19.07
2018-05-14T05:59:42.220Z,18.99
2018-05-14T06:00:42.131Z,19.10
2018-05-14T06:01:42.045Z,19.07
2018-05-14T06:02:41.991Z,19.15
2018-05-14T06:03:41.881Z,19.12
2018-05-14T06:04:41.784Z,19.21
2018-05-14T06:05:41.699Z,19.07
2018-05-14T06:06:41.610Z,19.28
2018-05-14T06:07:41.556Z,19.07
2018-05-14T06:08:41.437Z,19.07
2018-05-14T06:09:41.350Z,18.99
2018-05-14T06:10:41.262Z,18.97
2018-05-14T06:11:41.175Z,18.89
2018-05-14T06:12:41.094Z,18.90
2018-05-14T06:13:41.038Z,18.76
2018-05-14T06:14:41.007Z,18.86
2018-05-14T06:15:40.828Z,18.87
2018-05-14T06:16:40.742Z,19.01
2018-05-14T06:17:40.653Z,19.12
2018-05-14T06:18:40.603Z,19.07
2018-05-14T06:19:40.484Z,18.97
2018-05-14T06:20:40.395Z,19.20
2018-05-14T06:21:40.396Z,19.09
2018-05-14T06:22:40.225Z,19.21
2018-05-14T06:23:40.163Z,19.27
2018-05-14T06:24:40.046Z,19.13
2018-05-14T06:25:39.957Z,19.21
2018-05-14T06:26:39.871Z,19.16
2018-05-14T06:27:39.788Z,19.16
2018-05-14T06:28:39.733Z,19.10
2018-05-14T06:29:39.609Z,19.21
2018-05-14T06:30:39.527Z,19.17
2018-05-14T06:31:39.437Z,19.27
2018-05-14T06:32:39.349Z,19.27
2018-05-14T06:33:39.304Z,19.32
2018-05-14T06:34:39.177Z,19.43
2018-05-14T06:35:39.300Z,19.45
2018-05-14T06:36:39.000Z,19.52
2018-05-14T06:37:38.913Z,19.79
2018-05-14T06:38:38.830Z,19.79
2018-05-14T06:39:38.769Z,19.98
2018-05-14T06:40:38.652Z,20.25
2018-05-14T06:41:38.577Z,20.57
2018-05-14T06:42:38.573Z,20.82
2018-05-14T06:43:38.392Z,21.00
2018-05-14T06:44:38.341Z,20.79
2018-05-14T06:45:38.219Z,21.03
2018-05-14T06:46:38.133Z,21.03
2018-05-14T06:47:38.055Z,20.79
2018-05-14T06:48:37.970Z,20.83
2018-05-14T06:49:38.001Z,20.72
2018-05-14T06:50:37.793Z,20.66
2018-05-14T06:51:37.706Z,20.53
2018-05-14T06:52:37.619Z,20.56
2018-05-14T06:53:37.537Z,20.88
2018-05-14T06:54:37.482Z,21.11
2018-05-14T06:55:37.366Z,21.13
2018-05-14T06:56:37.373Z,21.18
2018-05-14T06:57:37.252Z,20.96
2018-05-14T06:58:37.111Z,20.72
2018-05-14T06:59:37.060Z,20.54
2018-05-14T07:00:36.942Z,20.83
2018-05-14T07:01:36.859Z,20.83
2018-05-14T07:02:36.776Z,20.79
2018-05-14T07:03:36.793Z,20.88
2018-05-14T07:04:36.643Z,21.09
2018-05-14T07:05:36.524Z,21.27
2018-05-14T07:06:36.440Z,21.21
2018-05-14T07:07:36.356Z,21.61
2018-05-14T07:08:36.272Z,21.81
2018-05-14T07:09:36.221Z,22.08
2018-05-14T07:10:36.194Z,22.02
2018-05-14T07:11:36.085Z,21.91
2018-05-14T07:12:36.727Z,22.01
2018-05-14T07:13:35.987Z,21.67
2018-05-14T07:14:35.800Z,21.37
2018-05-14T07:15:35.688Z,21.08
2018-05-14T07:16:35.605Z,21.06
2018-05-14T07:17:35.612Z,21.00
2018-05-14T07:18:35.436Z,21.22
2018-05-14T07:19:35.387Z,21.19
2018-05-14T07:20:35.273Z,21.19
2018-05-14T07:21:35.189Z,20.93
2018-05-14T07:22:35.103Z,21.03
2018-05-14T07:23:35.093Z,21.12
2018-05-14T07:24:35.064Z,21.27
2018-05-14T07:25:34.859Z,21.55
2018-05-14T07:26:34.772Z,21.67
2018-05-14T07:27:34.687Z,21.64
2018-05-14T07:28:34.605Z,21.71
2018-05-14T07:29:34.525Z,21.63
2018-05-14T07:30:34.470Z,21.66
2018-05-14T07:31:34.452Z,21.52
2018-05-14T07:32:34.274Z,21.45
2018-05-14T07:33:34.188Z,21.55
2018-05-14T07:34:34.109Z,21.49
2018-05-14T07:35:34.055Z,21.40
2018-05-14T07:36:33.943Z,21.67
2018-05-14T07:37:33.858Z,21.73
2018-05-14T07:38:33.871Z,21.74
2018-05-14T07:39:33.692Z,21.67
2018-05-14T07:40:33.699Z,21.75
2018-05-14T07:41:33.526Z,22.19
2018-05-14T07:42:33.440Z,22.19
2018-05-14T07:43:33.360Z,22.06
2018-05-14T07:44:33.280Z,22.09
2018-05-14T07:45:33.220Z,22.17
2018-05-14T07:46:33.108Z,22.31
2018-05-14T07:47:33.027Z,22.44
2018-05-14T07:48:32.942Z,22.45
2018-05-14T07:49:33.786Z,22.49
2018-05-14T07:50:32.811Z,22.38
2018-05-14T07:51:32.695Z,22.59
2018-05-14T07:52:32.613Z,22.81
2018-05-14T07:53:32.530Z,23.16
2018-05-14T07:54:32.497Z,23.14
2018-05-14T07:55:32.393Z,22.89
2018-05-14T07:56:32.280Z,23.12
2018-05-14T07:57:32.197Z,23.50
2018-05-14T07:58:32.116Z,23.29
2018-05-14T07:59:32.069Z,23.22
2018-05-14T08:00:31.982Z,22.86
2018-05-14T08:01:31.871Z,22.76
2018-05-14T08:02:31.784Z,22.33
2018-05-14T08:03:32.243Z,22.14
2018-05-14T08:04:31.621Z,22.21
2018-05-14T08:05:31.640Z,22.21
2018-05-14T08:06:31.457Z,22.38
2018-05-14T08:07:31.377Z,22.31
2018-05-14T08:08:31.291Z,22.19
2018-05-14T08:09:31.214Z,22.05
2018-05-14T08:10:31.159Z,21.91
2018-05-14T08:11:31.047Z,21.96
2018-05-14T08:12:30.964Z,22.27
2018-05-14T08:13:30.881Z,22.33
2018-05-14T08:14:30.802Z,22.54
2018-05-14T08:15:30.747Z,22.21
2018-05-14T08:16:30.636Z,21.96
2018-05-14T08:17:30.550Z,22.01
2018-05-14T08:18:30.470Z,22.38
2018-05-14T08:19:30.385Z,22.48
2018-05-14T08:20:30.339Z,22.51
2018-05-14T08:21:30.222Z,22.72
2018-05-14T08:22:30.140Z,22.56
2018-05-14T08:23:30.077Z,22.69
2018-05-14T08:24:29.975Z,23.09
2018-05-14T08:25:29.922Z,23.16
2018-05-14T08:26:29.806Z,23.35
2018-05-14T08:27:29.729Z,23.42
2018-05-14T08:28:29.644Z,23.22
2018-05-14T08:29:29.562Z,23.23
2018-05-14T08:30:29.508Z,23.47
2018-05-14T08:31:29.404Z,23.31
2018-05-14T08:32:29.315Z,23.38
2018-05-14T08:33:29.228Z,23.49
2018-05-14T08:34:29.151Z,23.25
2018-05-14T08:35:29.098Z,23.60
2018-05-14T08:36:28.985Z,23.38
2018-05-14T08:37:28.905Z,22.81
2018-05-14T08:38:28.820Z,23.12
2018-05-14T08:39:28.742Z,23.39
2018-05-14T08:40:28.689Z,23.90
2018-05-14T08:41:28.577Z,24.21
2018-05-14T08:42:28.516Z,24.11
2018-05-14T08:43:28.413Z,24.49
2018-05-14T08:44:28.330Z,24.46
2018-05-14T08:45:28.251Z,24.94
2018-05-14T08:46:28.198Z,24.51
2018-05-14T08:47:28.089Z,24.09
2018-05-14T08:48:28.005Z,23.94
2018-05-14T08:49:28.052Z,23.84
2018-05-14T08:50:27.844Z,23.99
2018-05-14T08:51:27.796Z,24.29
2018-05-14T08:52:27.687Z,24.30
2018-05-14T08:53:27.596Z,24.21
2018-05-14T08:54:27.591Z,23.94
2018-05-14T08:55:27.438Z,23.62
2018-05-14T08:56:27.394Z,23.78
2018-05-14T08:57:27.315Z,23.87
2018-05-14T08:58:27.192Z,24.08
2018-05-14T08:59:27.113Z,24.51
2018-05-14T09:00:27.031Z,24.15
2018-05-14T09:01:27.074Z,23.82
2018-05-14T09:02:26.871Z,24.15
2018-05-14T09:03:26.788Z,24.41
2018-05-14T09:04:26.710Z,23.39
2018-05-14T09:05:26.626Z,23.54
2018-05-14T09:06:26.577Z,23.72
2018-05-14T09:07:26.467Z,23.84
2018-05-14T09:08:27.302Z,24.00
2018-05-14T09:09:26.304Z,24.09
2018-05-14T09:10:26.224Z,24.14
2018-05-14T09:11:26.174Z,23.79
2018-05-14T09:12:26.060Z,23.89
2018-05-14T09:13:25.980Z,23.77
2018-05-14T09:14:25.902Z,23.92
2018-05-14T09:15:25.910Z,23.86
2018-05-14T09:16:25.768Z,23.82
2018-05-14T09:17:26.271Z,23.45
2018-05-14T09:18:25.574Z,23.62
2018-05-14T09:19:25.530Z,23.79
2018-05-14T09:20:25.414Z,23.69
2018-05-14T09:21:25.360Z,23.60
2018-05-14T09:22:25.342Z,23.79
2018-05-14T09:23:25.167Z,23.90
2018-05-14T09:24:25.086Z,24.04
2018-05-14T09:25:25.009Z,24.09
2018-05-14T09:26:24.955Z,24.37
2018-05-14T09:27:24.841Z,24.23
2018-05-14T09:28:24.766Z,23.86
2018-05-14T09:29:24.772Z,24.16
2018-05-14T09:30:24.597Z,24.46
2018-05-14T09:31:24.569Z,24.46
2018-05-14T09:32:24.435Z,23.84
2018-05-14T09:33:25.831Z,23.82
2018-05-14T09:34:24.272Z,23.86
2018-05-14T09:35:24.193Z,24.04
2018-05-14T09:36:25.776Z,24.52
2018-05-14T09:37:25.777Z,24.71
2018-05-14T09:38:23.947Z,25.11
2018-05-14T09:39:23.867Z,25.14
2018-05-14T09:40:23.787Z,25.09
2018-05-14T09:41:23.734Z,24.92
2018-05-14T09:42:23.624Z,24.29
2018-05-14T09:43:23.636Z,23.86
2018-05-14T09:44:23.462Z,23.99
2018-05-14T09:45:23.380Z,24.27
2018-05-14T09:46:23.334Z,24.70
2018-05-14T09:47:23.217Z,25.07
2018-05-14T09:48:23.139Z,24.64
2018-05-14T09:49:23.057Z,24.52
2018-05-14T09:50:23.155Z,24.52
2018-05-14T09:51:22.927Z,24.21
2018-05-14T09:52:22.812Z,24.41
2018-05-14T09:53:22.733Z,24.29
2018-05-14T09:54:22.653Z,24.39
2018-05-14T09:55:22.572Z,24.46
2018-05-14T09:56:22.522Z,24.77
2018-05-14T09:57:22.523Z,25.05
2018-05-14T09:58:22.329Z,25.07
2018-05-14T09:59:22.248Z,24.51
2018-05-14T10:00:22.166Z,24.82
2018-05-14T10:01:22.088Z,24.29
2018-05-14T10:02:22.036Z,25.04
2018-05-14T10:03:21.925Z,24.93
2018-05-14T10:04:21.940Z,25.14
2018-05-14T10:05:21.765Z,25.31
2018-05-14T10:06:21.696Z,25.76
2018-05-14T10:07:21.636Z,25.57
2018-05-14T10:08:21.521Z,24.94
2018-05-14T10:09:21.442Z,25.31
2018-05-14T10:10:22.292Z,24.84
2018-05-14T10:11:21.373Z,24.87
2018-05-14T10:12:21.232Z,25.14
2018-05-14T10:13:21.118Z,25.35
2018-05-14T10:14:21.039Z,25.49
2018-05-14T10:15:20.960Z,25.34
2018-05-14T10:16:20.878Z,25.35
2018-05-14T10:17:20.828Z,25.54
2018-05-14T10:18:20.824Z,25.05
2018-05-14T10:19:20.637Z,24.89
2018-05-14T10:20:20.556Z,24.41
2018-05-14T10:21:20.478Z,24.00
2018-05-14T10:22:20.427Z,24.00
2018-05-14T10:23:20.318Z,24.42
2018-05-14T10:24:20.236Z,24.75
2018-05-14T10:25:20.249Z,24.86
2018-05-14T10:26:20.074Z,24.92
2018-05-14T10:27:20.027Z,24.77
2018-05-14T10:28:19.911Z,25.05
2018-05-14T10:29:19.846Z,24.94
2018-05-14T10:30:19.753Z,24.94
2018-05-14T10:31:19.671Z,24.82
2018-05-14T10:32:19.711Z,24.51
2018-05-14T10:33:19.510Z,24.51
2018-05-14T10:34:19.430Z,24.23
2018-05-14T10:35:21.300Z,24.27
2018-05-14T10:36:19.270Z,24.63
2018-05-14T10:37:19.224Z,24.86
2018-05-14T10:38:19.106Z,25.24
2018-05-14T10:39:19.029Z,25.42
2018-05-14T10:40:18.944Z,25.31
2018-05-14T10:41:18.870Z,24.71
2018-05-14T10:42:18.816Z,24.68
2018-05-14T10:43:18.705Z,24.31
2018-05-14T10:44:18.624Z,24.39
2018-05-14T10:45:18.550Z,24.75
2018-05-14T10:46:18.461Z,24.70
2018-05-14T10:47:19.304Z,25.09
2018-05-14T10:48:18.301Z,25.34
2018-05-14T10:49:18.219Z,25.81
2018-05-14T10:50:18.138Z,26.38
2018-05-14T10:51:18.057Z,25.53
2018-05-14T10:52:18.007Z,25.51
2018-05-14T10:53:17.895Z,25.49
2018-05-14T10:54:17.817Z,25.72
2018-05-14T10:55:17.733Z,26.03
2018-05-14T10:56:17.655Z,25.98
2018-05-14T10:57:18.309Z,26.32
2018-05-14T10:58:17.494Z,25.86
2018-05-14T10:59:17.413Z,25.42
2018-05-14T11:00:17.334Z,25.41
2018-05-14T11:01:17.253Z,25.22
2018-05-14T11:02:17.205Z,25.27
2018-05-14T11:03:17.095Z,25.39
2018-05-14T11:04:17.020Z,24.97
2018-05-14T11:05:16.933Z,25.05
2018-05-14T11:06:16.857Z,25.22
2018-05-14T11:07:16.808Z,25.66
2018-05-14T11:08:16.693Z,25.51
2018-05-14T11:09:16.613Z,25.23
2018-05-14T11:10:16.529Z,25.11
2018-05-14T11:11:16.455Z,25.39
2018-05-14T11:12:16.404Z,25.76
2018-05-14T11:13:16.293Z,25.74
2018-05-14T11:14:16.213Z,25.85
2018-05-14T11:15:16.132Z,26.31
2018-05-14T11:16:16.064Z,26.06
2018-05-14T11:17:15.975Z,25.76
2018-05-14T11:18:15.923Z,25.54
2018-05-14T11:19:15.812Z,26.09
2018-05-14T11:20:15.732Z,25.66
2018-05-14T11:21:15.941Z,26.36
2018-05-14T11:22:15.576Z,25.85
2018-05-14T11:23:15.525Z,25.30
2018-05-14T11:24:15.412Z,25.14
2018-05-14T11:25:15.819Z,25.22
2018-05-14T11:26:15.256Z,25.63
2018-05-14T11:27:15.194Z,25.36
2018-05-14T11:28:15.124Z,25.34
2018-05-14T11:29:15.013Z,24.99
2018-05-14T11:30:14.934Z,25.12
2018-05-14T11:31:14.854Z,25.39
2018-05-14T11:32:14.775Z,25.16
2018-05-14T11:33:14.725Z,25.66
2018-05-14T11:34:14.612Z,25.78
2018-05-14T11:35:14.626Z,25.81
2018-05-14T11:36:14.459Z,25.94
2018-05-14T11:37:14.375Z,25.82
2018-05-14T11:38:14.325Z,25.59
2018-05-14T11:39:14.222Z,25.89
2018-05-14T11:40:14.147Z,26.41
2018-05-14T11:41:14.056Z,26.03
2018-05-14T11:42:14.068Z,25.79
2018-05-14T11:43:13.926Z,25.79
2018-05-14T11:44:13.814Z,25.61
2018-05-14T11:45:13.748Z,25.04
2018-05-14T11:46:13.666Z,25.27
2018-05-14T11:47:13.576Z,25.59
2018-05-14T11:48:13.529Z,25.75
2018-05-14T11:49:13.510Z,25.23
2018-05-14T11:50:13.340Z,25.42
2018-05-14T11:51:13.257Z,25.44
2018-05-14T11:52:13.202Z,25.41
2018-05-14T11:53:13.128Z,25.67
2018-05-14T11:54:13.019Z,25.78
2018-05-14T11:55:12.943Z,25.35
2018-05-14T11:56:12.952Z,25.72
2018-05-14T11:57:12.777Z,25.45
2018-05-14T11:58:12.729Z,25.56
2018-05-14T11:59:12.623Z,25.54
2018-05-14T12:00:12.541Z,25.42
2018-05-14T12:01:12.458Z,25.45
2018-05-14T12:02:12.379Z,25.38
2018-05-14T12:03:12.510Z,25.30
2018-05-14T12:04:12.226Z,25.22
2018-05-14T12:05:12.139Z,25.71
2018-05-14T12:06:12.060Z,25.54
2018-05-14T12:07:11.983Z,25.71
2018-05-14T12:08:11.934Z,25.79
2018-05-14T12:09:11.822Z,25.54
2018-05-14T12:10:11.851Z,24.51
2018-05-14T12:11:11.661Z,24.89
2018-05-14T12:12:11.624Z,25.27
2018-05-14T12:13:11.531Z,25.35
2018-05-14T12:14:11.424Z,25.17
2018-05-14T12:15:11.353Z,25.01
2018-05-14T12:16:11.343Z,25.27
2018-05-14T12:17:11.275Z,25.57
2018-05-14T12:18:11.148Z,25.85
2018-05-14T12:19:11.023Z,26.42
2018-05-14T12:20:10.941Z,26.35
2018-05-14T12:21:10.860Z,25.85
2018-05-14T12:22:10.783Z,25.69
2018-05-14T12:23:10.733Z,25.08
2018-05-14T12:24:10.719Z,25.35
2018-05-14T12:25:10.541Z,25.31
2018-05-14T12:26:10.465Z,25.30
2018-05-14T12:27:10.897Z,25.27
2018-05-14T12:28:10.303Z,24.89
2018-05-14T12:29:10.251Z,25.24
2018-05-14T12:30:10.235Z,25.36
2018-05-14T12:31:10.066Z,25.71
2018-05-14T12:32:10.074Z,25.71
2018-05-14T12:33:09.903Z,26.03
2018-05-14T12:34:09.855Z,26.06
2018-05-14T12:35:09.746Z,25.83
2018-05-14T12:36:09.665Z,25.36
2018-05-14T12:37:09.580Z,25.30
2018-05-14T12:38:09.514Z,25.46
2018-05-14T12:39:10.348Z,25.26
2018-05-14T12:40:09.343Z,25.56
2018-05-14T12:41:09.264Z,25.34
2018-05-14T12:42:09.184Z,25.12
2018-05-14T12:43:09.110Z,25.46
2018-05-14T12:44:09.851Z,25.53
2018-05-14T12:45:08.943Z,25.67
2018-05-14T12:46:08.959Z,25.29
2018-05-14T12:47:08.786Z,25.45
2018-05-14T12:48:08.707Z,25.31
2018-05-14T12:49:08.658Z,25.42
2018-05-14T12:50:08.559Z,25.41
2018-05-14T12:51:08.467Z,25.36